ADDS METAR Data INFO
IDs: Format: Raw Decoded Include TAF

Data at: 1053 UTC 19 Oct 2017

KMOX 191035Z AUTO 14006KT 10SM CLR 02/00 A2997 RMK AO2
KMOX 191015Z AUTO 12005KT 10SM CLR 02/00 A2997 RMK AO2
KMOX 190955Z AUTO 14006KT 10SM CLR 02/00 A2997 RMK AO2
KMOX 190935Z AUTO 14005KT 10SM CLR 02/00 A2998 RMK AO2
KMOX 190917Z AUTO 17004KT 10SM CLR 03/00 A2998 RMK AO2
KMOX 190855Z AUTO 17004KT 10SM CLR 03/00 A2998 RMK AO2
KMOX 190835Z AUTO 20003KT 10SM CLR 03/00 A2998 RMK AO2
KMOX 190816Z AUTO 22003KT 10SM CLR 04/01 A2999 RMK AO2
KMOX 190755Z AUTO 21004KT 10SM CLR 04/00 A2999 RMK AO2
KMOX 190735Z AUTO 19004KT 10SM CLR 04/00 A2999 RMK AO2
KMOX 190715Z AUTO 20003KT 10SM CLR 04/01 A3000 RMK AO2
KMOX 190655Z AUTO 23003KT 10SM CLR 06/00 A3000 RMK AO2
KMOX 190636Z AUTO 26005KT 10SM CLR 06/00 A3000 RMK AO2
KMOX 190615Z AUTO 26006KT 10SM CLR 06/01 A2999 RMK AO2
KMOX 190555Z AUTO 25007KT 10SM CLR 06/01 A2999 RMK AO2
KMOX 190515Z AUTO 26005KT 10SM CLR 07/01 A3000 RMK AO2
KMOX 190455Z AUTO 25008KT 10SM CLR 07/01 A2999 RMK AO2
KMOX 190435Z AUTO 25007KT 10SM CLR 06/01 A2999 RMK AO2
KMOX 190414Z AUTO 25007KT 10SM CLR 06/01 A2999 RMK AO2
KMOX 190355Z AUTO 26007KT 10SM CLR 06/01 A3000 RMK AO2
KMOX 190335Z AUTO 25007KT 10SM CLR 07/01 A3000 RMK AO2
KMOX 190315Z AUTO 25007KT 10SM CLR 06/01 A3000 RMK AO2
KMOX 190257Z AUTO 26007KT 10SM CLR 06/01 A2999 RMK AO2
KMOX 190237Z AUTO 25007KT 10SM CLR 07/01 A2999 RMK AO2
KMOX 190215Z AUTO 25007KT 10SM CLR 07/01 A2999 RMK AO2
KMOX 190155Z AUTO 25007KT 10SM CLR 07/01 A2999 RMK AO2
KMOX 190135Z AUTO 26006KT 10SM CLR 08/01 A3000 RMK AO2
KMOX 190115Z AUTO 26007KT 10SM CLR 08/01 A2999 RMK AO2
KMOX 190055Z AUTO 26006KT 10SM CLR 08/00 A2999 RMK AO2
KMOX 190035Z AUTO 27006KT 10SM CLR 09/M01 A2998 RMK AO2
KMOX 190015Z AUTO 27006KT 10SM CLR 10/00 A2998 RMK AO2
KMOX 182355Z AUTO 28006KT 10SM CLR 11/00 A2997 RMK AO2
KMOX 182335Z AUTO 29008KT 10SM CLR 12/M01 A2997 RMK AO2
KMOX 182315Z AUTO 29009KT 10SM CLR 13/M01 A2996 RMK AO2
KMOX 182255Z AUTO 28011KT 10SM CLR 14/M02 A2995 RMK AO2
KMOX 182236Z AUTO 28010KT 10SM CLR 14/M02 A2994 RMK AO2
KMOX 182215Z AUTO 28013KT 10SM CLR 14/M02 A2994 RMK AO2
KMOX 182154Z AUTO 29015KT 10SM CLR 15/M03 A2994 RMK AO2
KMOX 182134Z AUTO 28011G18KT 10SM CLR 15/M02 A2994 RMK AO2
KMOX 182115Z AUTO 29012G18KT 10SM CLR 15/M03 A2994 RMK AO2
KMOX 182054Z AUTO 29013KT 10SM CLR 15/M03 A2993 RMK AO2
KMOX 182034Z AUTO 30013KT 10SM CLR 15/M03 A2993 RMK AO2
KMOX 182017Z AUTO 32016G26KT 10SM CLR 15/M04 A2993 RMK AO2
KMOX 181954Z AUTO 32017KT 10SM CLR 16/M02 A2992 RMK AO2
KMOX 181934Z AUTO 32012G21KT 10SM CLR 16/M02 A2991 RMK AO2
KMOX 181914Z AUTO 33017G21KT 10SM CLR 17/M02 A2990 RMK AO2
KMOX 181854Z AUTO 32017G22KT 10SM CLR 18/M02 A2989 RMK AO2
KMOX 181834Z AUTO 36017G23KT 10SM CLR 18/M01 A2989 RMK AO2
KMOX 181814Z AUTO 34020G24KT 10SM CLR 18/M01 A2989 RMK AO2
KMOX 181754Z AUTO 33017G23KT 10SM CLR 18/01 A2988 RMK AO2
KMOX 181734Z AUTO 33020G29KT 10SM CLR 18/01 A2988 RMK AO2
KMOX 181714Z AUTO 33018G27KT 10SM CLR 18/02 A2987 RMK AO2
KMOX 181654Z AUTO 34021G27KT 10SM CLR 18/02 A2986 RMK AO2
KMOX 181634Z AUTO 33020G26KT 10SM CLR 17/02 A2985 RMK AO2
KMOX 181614Z AUTO 33019G25KT 10SM CLR 16/03 A2985 RMK AO2
KMOX 181554Z AUTO 32013KT 10SM CLR 14/05 A2983 RMK AO2
KMOX 181534Z AUTO 32011KT 10SM CLR 14/05 A2981 RMK AO2
KMOX 181514Z AUTO 32011KT 10SM CLR 14/06 A2979 RMK AO2
KMOX 181454Z AUTO 31011KT 10SM CLR 14/07 A2978 RMK AO2
KMOX 181436Z AUTO 30007KT 10SM CLR 12/07 A2978 RMK AO2
KMOX 181414Z AUTO 30003KT 10SM CLR 10/07 A2976 RMK AO2
KMOX 181356Z AUTO 00000KT 10SM CLR 09/07 A2975 RMK AO2
KMOX 181334Z AUTO 29003KT 10SM CLR 09/07 A2974 RMK AO2
KMOX 181314Z AUTO 29006KT 10SM CLR 09/07 A2973 RMK AO2
KMOX 181254Z AUTO 17009KT 10SM CLR 08/06 A2967 RMK AO2
KMOX 181235Z AUTO 16010KT 10SM CLR 08/06 A2967 RMK AO2
KMOX 181214Z AUTO 16010KT 10SM CLR 08/06 A2968 RMK AO2
KMOX 181154Z AUTO 17010KT 10SM CLR 08/06 A2969 RMK AO2
KMOX 181134Z AUTO 17007KT 10SM CLR 08/06 A2970 RMK AO2
KMOX 181114Z AUTO 16008KT 10SM CLR 08/06 A2969 RMK AO2
KMOX 181054Z AUTO 15008KT 10SM CLR 08/06 A2970 RMK AO2
KMOX 181034Z AUTO 15008KT 10SM CLR 07/06 A2970 RMK AO2
KMOX 181014Z AUTO 15008KT 10SM CLR 07/06 A2971 RMK AO2
KMOX 180954Z AUTO 15008KT 10SM CLR 08/06 A2971 RMK AO2
KMOX 180934Z AUTO 15009KT 10SM CLR 08/06 A2971 RMK AO2
KMOX 180916Z AUTO 15009KT 10SM CLR 09/06 A2971 RMK AO2
KMOX 180855Z AUTO 16008KT 10SM CLR 09/06 A2972 RMK AO2
KMOX 180834Z AUTO 16008KT 10SM CLR 09/06 A2973 RMK AO2
KMOX 180815Z AUTO 16008KT 10SM CLR 09/06 A2973 RMK AO2
KMOX 180755Z AUTO 16008KT 10SM CLR 08/06 A2974 RMK AO2
KMOX 180734Z AUTO 15008KT 10SM CLR 08/06 A2975 RMK AO2
KMOX 180714Z AUTO 16008KT 10SM CLR 08/06 A2975 RMK AO2
KMOX 180655Z AUTO 16008KT 10SM CLR 08/06 A2975 RMK AO2
KMOX 180635Z AUTO 17010KT 10SM CLR 10/06 A2975 RMK AO2
KMOX 180614Z AUTO 18009KT 10SM CLR 11/06 A2976 RMK AO2
KMOX 180554Z AUTO 18010KT 10SM CLR 11/06 A2976 RMK AO2
KMOX 180534Z AUTO 18010KT 10SM CLR 12/05 A2977 RMK AO2
KMOX 180514Z AUTO 19011KT 10SM CLR 12/05 A2977 RMK AO2
KMOX 180455Z AUTO 19009KT 10SM CLR 11/05 A2978 RMK AO2
KMOX 180434Z AUTO 19010KT 10SM CLR 11/05 A2979 RMK AO2
KMOX 180415Z AUTO 19008KT 10SM CLR 11/05 A2980 RMK AO2
KMOX 180354Z AUTO 19009KT 10SM CLR 11/06 A2981 RMK AO2
KMOX 180334Z AUTO 18008KT 10SM CLR 11/05 A2981 RMK AO2
KMOX 180314Z AUTO 18005KT 10SM CLR 11/06 A2981 RMK AO2
KMOX 180255Z AUTO 17009KT 10SM CLR 11/05 A2981 RMK AO2
KMOX 180234Z AUTO 16007KT 10SM CLR 11/05 A2982 RMK AO2
KMOX 180214Z AUTO 17007KT 10SM CLR 11/05 A2982 RMK AO2
KMOX 180155Z AUTO 17007KT 5SM HZ CLR 11/06 A2982 RMK AO2
KMOX 180134Z AUTO 16006KT 10SM CLR 12/06 A2983 RMK AO2
KMOX 180114Z AUTO 17005KT 10SM CLR 12/06 A2983 RMK AO2
KMOX 180054Z AUTO 17005KT 10SM CLR 12/06 A2983 RMK AO2
KMOX 180034Z AUTO 19006KT 10SM CLR 13/06 A2983 RMK AO2
KMOX 180014Z AUTO 20008KT 10SM CLR 16/06 A2983 RMK AO2
KMOX 172354Z AUTO 20006KT 10SM CLR 16/06 A2983 RMK AO2
KMOX 172334Z AUTO 19007KT 10SM CLR 17/07 A2983 RMK AO2
KMOX 172314Z AUTO 18006KT 10SM CLR 19/08 A2983 RMK AO2
KMOX 172254Z AUTO 18006KT 10SM CLR 21/08 A2984 RMK AO2